Time;durP1;ratioP1;P1;durP2;ratioP2;P2;SDS_P1;SDS_P2;PMS_P1;PMS_P2;Temp;Humidity;BMP_temperature;BMP_pressure;BME280_temperature;BME280_humidity;BME280_pressure;Samples;Min_cycle;Max_cycle;Signal;HPM_P1;HPM_P2
2021/08/23 00:00:59;;;;;;;5.07;3.30;;;18.30;99.90;;;;;;4999901;28;20445;-69
2021/08/23 00:03:25;;;;;;;7.87;3.43;;;18.40;99.90;;;;;;5005881;28;20185;-69
2021/08/23 00:05:53;;;;;;;4.60;3.73;;;18.30;99.90;;;;;;5000812;28;20207;-69
2021/08/23 00:08:19;;;;;;;5.13;3.60;;;18.30;99.90;;;;;;5002988;28;20217;-70
2021/08/23 00:10:45;;;;;;;4.87;4.07;;;18.30;99.90;;;;;;5004660;28;20491;-70
2021/08/23 00:13:10;;;;;;;7.10;3.40;;;18.40;99.90;;;;;;5003056;28;20552;-70
2021/08/23 00:15:38;;;;;;;4.00;3.53;;;18.40;99.90;;;;;;5004030;28;20429;-70
2021/08/23 00:18:04;;;;;;;5.37;3.00;;;18.40;99.90;;;;;;5004678;28;20552;-69
2021/08/23 00:20:42;;;;;;;3.97;3.67;;;18.40;99.90;;;;;;5002935;28;20448;-69
2021/08/23 00:23:11;;;;;;;6.50;3.57;;;18.40;99.90;;;;;;5002379;28;20208;-70
2021/08/23 00:25:43;;;;;;;3.80;3.50;;;18.30;99.90;;;;;;5006396;28;20423;-69
2021/08/23 00:28:10;;;;;;;5.57;3.30;;;18.40;99.90;;;;;;5001561;28;21504;-69
2021/08/23 00:30:36;;;;;;;3.80;3.10;;;18.40;99.90;;;;;;5003011;28;20467;-69
2021/08/23 00:33:03;;;;;;;3.70;2.90;;;18.40;99.90;;;;;;5003130;28;20775;-69
2021/08/23 00:35:29;;;;;;;3.87;2.70;;;18.40;99.90;;;;;;5003632;28;20432;-69
2021/08/23 00:37:55;;;;;;;5.50;3.17;;;18.50;99.90;;;;;;5012531;28;20413;-69
2021/08/23 00:40:22;;;;;;;5.13;3.67;;;18.40;99.90;;;;;;5002565;28;20547;-70
2021/08/23 00:42:48;;;;;;;5.83;3.70;;;18.50;99.90;;;;;;4999877;28;20432;-71
2021/08/23 00:45:14;;;;;;;3.87;3.30;;;18.50;99.90;;;;;;5005388;28;20498;-70
2021/08/23 00:47:39;;;;;;;4.87;3.10;;;18.60;99.90;;;;;;5002780;28;20286;-70
2021/08/23 00:50:05;;;;;;;6.10;4.47;;;18.50;99.90;;;;;;5001443;28;20224;-70
2021/08/23 00:52:31;;;;;;;5.93;3.00;;;18.50;99.90;;;;;;5003973;28;20271;-69
2021/08/23 00:54:57;;;;;;;5.10;3.70;;;18.40;99.90;;;;;;5000486;28;20990;-70
2021/08/23 00:57:22;;;;;;;2.93;2.63;;;18.40;99.90;;;;;;5002684;28;20194;-71
2021/08/23 00:59:49;;;;;;;3.53;3.03;;;18.50;99.90;;;;;;4999115;28;20220;-69
2021/08/23 01:02:27;;;;;;;4.00;3.40;;;18.60;99.90;;;;;;5000981;28;20737;-70
2021/08/23 01:05:13;;;;;;;4.37;2.90;;;18.60;99.90;;;;;;5018626;28;20432;-68
2021/08/23 01:07:51;;;;;;;4.23;2.70;;;18.70;99.90;;;;;;4999901;28;20435;-69
2021/08/23 01:10:24;;;;;;;4.13;3.03;;;18.60;99.90;;;;;;5002321;28;21023;-70
2021/08/23 01:12:50;;;;;;;5.80;2.93;;;18.60;99.90;;;;;;5001739;28;20432;-70
2021/08/23 01:15:16;;;;;;;3.80;3.03;;;18.70;99.90;;;;;;4999892;28;20446;-69
2021/08/23 01:17:41;;;;;;;3.40;2.90;;;18.60;99.90;;;;;;4996730;28;20186;-69
2021/08/23 01:20:08;;;;;;;3.63;3.30;;;18.50;99.90;;;;;;5003729;28;20233;-70
2021/08/23 01:22:45;;;;;;;4.00;3.40;;;18.60;99.90;;;;;;4999639;28;20202;-70
2021/08/23 01:25:17;;;;;;;7.00;3.23;;;18.50;99.90;;;;;;5000440;28;20439;-69
2021/08/23 01:28:00;;;;;;;4.60;2.93;;;18.50;99.90;;;;;;5000762;28;20551;-69
2021/08/23 01:30:36;;;;;;;7.67;3.40;;;18.50;99.90;;;;;;4999377;28;21159;-70
2021/08/23 01:33:02;;;;;;;4.07;3.47;;;18.50;99.90;;;;;;5001634;28;20443;-69
2021/08/23 01:35:28;;;;;;;5.70;3.17;;;18.40;99.90;;;;;;5004581;28;20855;-69
2021/08/23 01:37:54;;;;;;;3.17;2.87;;;18.40;99.90;;;;;;5001863;28;20322;-69
2021/08/23 01:40:20;;;;;;;4.10;2.80;;;18.30;99.90;;;;;;4997894;28;20216;-69
2021/08/23 01:42:45;;;;;;;5.40;3.60;;;18.30;99.90;;;;;;5003711;28;20432;-69
2021/08/23 01:45:11;;;;;;;5.53;2.60;;;18.20;99.90;;;;;;4998814;28;20212;-69
2021/08/23 01:47:37;;;;;;;8.23;3.40;;;18.20;99.90;;;;;;5002293;28;20190;-69
2021/08/23 01:50:03;;;;;;;4.40;2.90;;;18.20;99.90;;;;;;5002602;28;20225;-71
2021/08/23 01:52:28;;;;;;;4.47;2.70;;;18.20;99.90;;;;;;5000346;28;20197;-70
2021/08/23 01:54:54;;;;;;;4.80;3.27;;;18.30;99.90;;;;;;5003917;28;20424;-70
2021/08/23 01:57:20;;;;;;;13.07;4.00;;;18.30;99.90;;;;;;5002003;28;20600;-69
2021/08/23 01:59:46;;;;;;;3.33;3.03;;;18.40;99.90;;;;;;5001979;28;20217;-69
2021/08/23 02:02:12;;;;;;;3.90;3.07;;;18.40;99.90;;;;;;5003878;28;20205;-69
2021/08/23 02:04:37;;;;;;;3.63;2.80;;;18.50;99.90;;;;;;5001183;28;20436;-70
2021/08/23 02:07:03;;;;;;;4.00;2.93;;;18.50;99.90;;;;;;5002638;28;20669;-70
2021/08/23 02:09:33;;;;;;;5.50;3.40;;;18.50;99.90;;;;;;5003817;28;20201;-70
2021/08/23 02:11:59;;;;;;;3.10;2.70;;;18.40;99.90;;;;;;5004808;28;20217;-70
2021/08/23 02:14:24;;;;;;;4.23;3.77;;;18.40;99.90;;;;;;5005025;28;20432;-70
2021/08/23 02:16:54;;;;;;;4.80;2.87;;;18.50;99.90;;;;;;5005144;28;20239;-69
2021/08/23 02:19:21;;;;;;;4.93;3.47;;;18.50;99.90;;;;;;5004469;28;20211;-69
2021/08/23 02:21:50;;;;;;;7.90;3.07;;;18.40;99.90;;;;;;5005556;28;20428;-69
2021/08/23 02:24:17;;;;;;;6.53;4.10;;;18.50;99.90;;;;;;5004212;28;20476;-69
2021/08/23 02:26:43;;;;;;;8.47;3.33;;;18.40;99.90;;;;;;5004407;28;20475;-70
2021/08/23 02:29:08;;;;;;;7.10;4.07;;;18.30;99.90;;;;;;5006368;28;20484;-69
2021/08/23 02:31:36;;;;;;;6.03;4.87;;;18.30;99.90;;;;;;5002335;28;20311;-70
2021/08/23 02:34:05;;;;;;;7.33;3.80;;;18.30;99.90;;;;;;5003599;28;20244;-70
2021/08/23 02:36:31;;;;;;;5.33;3.73;;;18.30;99.90;;;;;;5006401;28;20451;-70
2021/08/23 02:39:03;;;;;;;4.87;3.20;;;18.30;99.90;;;;;;5022869;28;20460;-70
2021/08/23 02:41:29;;;;;;;3.80;3.37;;;18.20;99.90;;;;;;5003889;28;20606;-70
2021/08/23 02:43:55;;;;;;;3.97;2.97;;;18.30;99.90;;;;;;5004135;28;20451;-70
2021/08/23 02:46:21;;;;;;;4.80;3.50;;;18.30;99.90;;;;;;5004863;28;20208;-70
2021/08/23 02:48:46;;;;;;;4.87;2.60;;;18.30;99.90;;;;;;5005151;28;20292;-70
2021/08/23 02:51:13;;;;;;;5.00;2.60;;;18.40;99.90;;;;;;5004689;28;20209;-70
2021/08/23 02:53:39;;;;;;;7.50;3.40;;;18.30;99.90;;;;;;5002617;28;20193;-70
2021/08/23 02:56:05;;;;;;;5.17;3.60;;;18.30;99.90;;;;;;5005780;28;20938;-70
2021/08/23 02:58:30;;;;;;;5.73;3.00;;;18.30;99.90;;;;;;5004704;28;21029;-69
2021/08/23 03:00:56;;;;;;;5.07;3.50;;;18.20;99.90;;;;;;5002556;28;20440;-69
2021/08/23 03:03:22;;;;;;;5.67;3.50;;;18.20;99.90;;;;;;5004976;28;20200;-70
2021/08/23 03:05:47;;;;;;;10.83;3.50;;;18.20;99.90;;;;;;5005597;28;20227;-70
2021/08/23 03:08:16;;;;;;;3.37;3.07;;;18.20;99.90;;;;;;5003861;28;20205;-69
2021/08/23 03:10:42;;;;;;;5.03;3.27;;;18.10;99.90;;;;;;5004882;28;20250;-70
2021/08/23 03:13:07;;;;;;;4.93;3.10;;;18.10;99.90;;;;;;5003496;28;20851;-70
2021/08/23 03:15:33;;;;;;;3.47;3.10;;;18.10;99.90;;;;;;5001662;28;20247;-69
2021/08/23 03:17:59;;;;;;;6.27;3.10;;;18.10;99.90;;;;;;5004471;28;20189;-70
2021/08/23 03:20:24;;;;;;;3.57;3.10;;;18.00;99.90;;;;;;5002562;28;20676;-69
2021/08/23 03:22:50;;;;;;;5.87;3.07;;;18.00;99.90;;;;;;5004145;28;20189;-70
2021/08/23 03:25:16;;;;;;;5.93;3.43;;;17.90;99.90;;;;;;5003674;28;20737;-69
2021/08/23 03:27:45;;;;;;;5.40;3.90;;;17.90;99.90;;;;;;5001947;28;20348;-70
2021/08/23 03:30:11;;;;;;;8.30;4.00;;;18.00;99.90;;;;;;5006287;28;20479;-70
2021/08/23 03:32:43;;;;;;;4.07;3.67;;;17.90;99.90;;;;;;5002489;28;20425;-70
2021/08/23 03:35:09;;;;;;;6.17;3.10;;;17.80;99.90;;;;;;5002210;28;20534;-69
2021/08/23 03:37:34;;;;;;;4.70;3.50;;;17.80;99.90;;;;;;5005981;28;20478;-71
2021/08/23 03:40:00;;;;;;;5.50;3.50;;;17.80;99.90;;;;;;5002324;28;20463;-70
2021/08/23 03:42:26;;;;;;;3.20;2.90;;;17.90;99.90;;;;;;5005998;28;20651;-70
2021/08/23 03:44:51;;;;;;;4.10;3.20;;;17.90;99.90;;;;;;5004055;28;20196;-69
2021/08/23 03:47:17;;;;;;;10.53;3.80;;;17.90;99.90;;;;;;5000525;28;20677;-70
2021/08/23 03:49:43;;;;;;;4.60;3.50;;;17.90;99.90;;;;;;5005940;28;20300;-70
2021/08/23 03:52:09;;;;;;;4.93;3.20;;;17.80;99.90;;;;;;5002982;28;20535;-69
2021/08/23 03:54:34;;;;;;;4.57;3.30;;;17.80;99.90;;;;;;5002593;28;20204;-69
2021/08/23 03:57:00;;;;;;;4.70;3.53;;;17.80;99.90;;;;;;5005334;28;20192;-70
2021/08/23 03:59:26;;;;;;;4.50;3.43;;;17.80;99.90;;;;;;5000691;28;20228;-69
2021/08/23 04:01:51;;;;;;;6.00;3.73;;;17.80;99.90;;;;;;4999320;28;20189;-70
2021/08/23 04:04:17;;;;;;;3.10;2.80;;;17.80;99.90;;;;;;5004782;28;20271;-70
2021/08/23 04:06:46;;;;;;;4.17;3.67;;;17.80;99.90;;;;;;5002565;28;20205;-70
2021/08/23 04:09:13;;;;;;;4.63;3.80;;;17.90;99.90;;;;;;5000587;28;20220;-70
2021/08/23 04:11:38;;;;;;;4.23;3.17;;;17.90;99.90;;;;;;5002629;28;20460;-70
2021/08/23 04:14:04;;;;;;;4.37;3.13;;;17.90;99.90;;;;;;5002429;28;20468;-70
2021/08/23 04:16:29;;;;;;;6.70;3.60;;;17.90;99.90;;;;;;5005197;28;20191;-70
2021/08/23 04:18:55;;;;;;;5.73;3.57;;;17.80;99.90;;;;;;5000533;28;20201;-71
2021/08/23 04:21:21;;;;;;;4.00;3.40;;;17.80;99.90;;;;;;5001216;28;20299;-70
2021/08/23 04:23:46;;;;;;;6.30;3.57;;;18.00;99.90;;;;;;4999564;28;20675;-70
2021/08/23 04:26:12;;;;;;;6.90;3.70;;;17.80;99.90;;;;;;5003681;28;20585;-70
2021/08/23 04:28:41;;;;;;;5.37;3.73;;;17.80;99.90;;;;;;5001338;28;20263;-70
2021/08/23 04:31:06;;;;;;;6.47;3.90;;;17.70;99.90;;;;;;5002403;28;20205;-70
2021/08/23 04:33:32;;;;;;;7.97;3.33;;;17.80;99.90;;;;;;5003673;28;21024;-70
2021/08/23 04:35:58;;;;;;;3.80;3.20;;;18.00;99.90;;;;;;5000075;28;20736;-70
2021/08/23 04:38:23;;;;;;;5.20;3.80;;;17.90;99.90;;;;;;5003365;28;20185;-70
2021/08/23 04:40:49;;;;;;;5.50;3.23;;;17.90;99.90;;;;;;5002135;28;20204;-69
2021/08/23 04:43:15;;;;;;;4.60;3.23;;;18.00;99.90;;;;;;5000795;28;20194;-70
2021/08/23 04:45:41;;;;;;;4.47;4.07;;;18.00;99.90;;;;;;5003739;28;20205;-69
2021/08/23 04:48:06;;;;;;;4.40;3.60;;;17.90;99.90;;;;;;5000827;28;20436;-69
2021/08/23 04:50:32;;;;;;;4.63;3.77;;;17.90;99.90;;;;;;5002111;28;20299;-70
2021/08/23 04:52:58;;;;;;;4.20;3.30;;;17.90;99.90;;;;;;5000305;28;20198;-70
2021/08/23 04:55:23;;;;;;;5.57;3.90;;;17.80;99.90;;;;;;5001358;28;20201;-71
2021/08/23 04:57:51;;;;;;;5.80;3.53;;;17.60;99.90;;;;;;5002828;28;20185;-70
2021/08/23 05:00:17;;;;;;;4.53;3.90;;;17.60;99.90;;;;;;5002854;28;20224;-70
2021/08/23 05:02:42;;;;;;;5.30;4.00;;;17.60;99.90;;;;;;5002077;28;20452;-69
2021/08/23 05:05:08;;;;;;;5.33;3.67;;;17.70;99.90;;;;;;5003295;28;20186;-71
2021/08/23 05:07:34;;;;;;;3.80;3.50;;;17.70;99.90;;;;;;5002102;28;20660;-69
2021/08/23 05:09:59;;;;;;;4.00;3.63;;;17.70;99.90;;;;;;5001523;28;20613;-69
2021/08/23 05:12:25;;;;;;;4.60;3.40;;;17.70;99.90;;;;;;5000430;28;20225;-68
2021/08/23 05:14:53;;;;;;;6.90;3.40;;;17.70;99.90;;;;;;4999894;28;20676;-69
2021/08/23 05:17:19;;;;;;;4.50;3.83;;;17.60;99.90;;;;;;5004040;28;20189;-68
2021/08/23 05:19:44;;;;;;;7.10;3.80;;;17.60;99.90;;;;;;4998242;28;20466;-70
2021/08/23 05:22:10;;;;;;;4.97;3.60;;;17.60;99.90;;;;;;5002370;28;20656;-69
2021/08/23 05:24:36;;;;;;;12.53;5.00;;;17.70;99.90;;;;;;5005656;28;20189;-69
2021/08/23 05:27:01;;;;;;;7.27;4.07;;;17.60;99.90;;;;;;4997970;28;20674;-69
2021/08/23 05:29:27;;;;;;;5.10;4.60;;;17.70;99.90;;;;;;5004477;28;20208;-70
2021/08/23 05:31:52;;;;;;;8.60;4.03;;;17.60;99.90;;;;;;4997402;28;20228;-70
2021/08/23 05:34:18;;;;;;;6.27;3.50;;;17.70;99.90;;;;;;4996607;28;20201;-69
2021/08/23 05:36:44;;;;;;;5.60;3.17;;;17.60;99.90;;;;;;5001666;28;20200;-71
2021/08/23 05:39:09;;;;;;;4.30;3.33;;;17.60;99.90;;;;;;4996777;28;20217;-70
2021/08/23 05:41:35;;;;;;;5.50;4.10;;;17.60;99.90;;;;;;4998750;28;20194;-69
2021/08/23 05:44:01;;;;;;;5.43;3.87;;;17.70;99.90;;;;;;5000642;28;20729;-69
2021/08/23 05:46:26;;;;;;;4.60;3.47;;;17.70;99.90;;;;;;5002531;28;21816;-69
2021/08/23 05:48:52;;;;;;;6.07;3.63;;;17.80;99.90;;;;;;5000908;28;20232;-70
2021/08/23 05:51:18;;;;;;;6.80;3.30;;;17.80;99.90;;;;;;5004010;28;20286;-69
2021/08/23 05:53:45;;;;;;;4.73;4.33;;;17.90;99.90;;;;;;5003855;28;20193;-70
2021/08/23 05:56:14;;;;;;;5.27;3.40;;;17.90;99.90;;;;;;5002542;28;21052;-69
2021/08/23 05:58:39;;;;;;;5.60;3.07;;;17.90;99.90;;;;;;5005817;28;20478;-70
2021/08/23 06:01:05;;;;;;;5.07;3.97;;;17.80;99.90;;;;;;5005160;28;20443;-70
2021/08/23 06:03:32;;;;;;;7.50;3.73;;;17.80;99.90;;;;;;5006536;28;20199;-70
2021/08/23 06:06:03;;;;;;;5.03;3.93;;;17.80;99.90;;;;;;5002705;28;20962;-70
2021/08/23 06:08:30;;;;;;;4.57;3.53;;;17.80;99.90;;;;;;5000569;28;20751;-69
2021/08/23 06:10:55;;;;;;;5.70;3.30;;;17.90;99.90;;;;;;4990497;28;20960;-69
2021/08/23 06:13:27;;;;;;;4.10;3.20;;;17.90;99.90;;;;;;5004957;28;20452;-70
2021/08/23 06:15:54;;;;;;;4.20;3.67;;;18.00;99.90;;;;;;5003406;28;20209;-70
2021/08/23 06:18:20;;;;;;;4.80;3.43;;;18.00;99.90;;;;;;5004961;28;20440;-69
2021/08/23 06:20:46;;;;;;;6.70;4.53;;;18.00;99.90;;;;;;5003054;28;20440;-70
2021/08/23 06:23:12;;;;;;;4.10;3.30;;;18.00;99.90;;;;;;5005517;28;20436;-70
2021/08/23 06:25:40;;;;;;;5.40;3.70;;;18.00;99.90;;;;;;5017537;28;20656;-69
2021/08/23 06:28:07;;;;;;;4.00;3.60;;;18.10;99.90;;;;;;5005190;28;20189;-70
2021/08/23 06:30:33;;;;;;;3.80;3.40;;;18.00;99.90;;;;;;5003732;28;20621;-70
2021/08/23 06:32:59;;;;;;;5.50;3.47;;;18.10;99.90;;;;;;5003710;28;20802;-69
2021/08/23 06:40:57;;;;;;;4.87;3.50;;;18.00;99.90;;;;;;4805662;26;20513;-66
2021/08/23 06:43:46;;;;;;;7.07;3.93;;;18.10;99.90;;;;;;4990670;28;20458;-66
2021/08/23 06:46:23;;;;;;;4.57;3.57;;;18.20;99.90;;;;;;4997324;28;20447;-66
2021/08/23 06:49:12;;;;;;;7.33;4.33;;;18.30;99.90;;;;;;5010401;28;20524;-66
2021/08/23 06:51:47;;;;;;;3.30;2.97;;;18.20;99.90;;;;;;5007823;28;20483;-65
2021/08/23 06:54:20;;;;;;;7.10;3.80;;;18.30;99.90;;;;;;5015949;28;20453;-66
2021/08/23 06:56:46;;;;;;;6.60;3.70;;;18.30;99.90;;;;;;5020004;28;20432;-68
2021/08/23 06:59:12;;;;;;;4.20;3.70;;;18.10;99.90;;;;;;4984541;28;20483;-68
2021/08/23 07:01:38;;;;;;;3.90;3.50;;;18.10;99.90;;;;;;5001715;28;20258;-68
2021/08/23 07:04:08;;;;;;;5.43;3.57;;;18.10;99.90;;;;;;5004108;28;20444;-67
2021/08/23 07:06:34;;;;;;;5.27;3.60;;;18.10;99.90;;;;;;5022897;28;20435;-69
2021/08/23 07:09:00;;;;;;;5.23;3.83;;;18.20;99.90;;;;;;5015952;28;20510;-69
2021/08/23 07:11:26;;;;;;;3.77;3.03;;;18.30;99.90;;;;;;5001947;28;20479;-69
2021/08/23 07:13:52;;;;;;;7.70;3.50;;;18.20;99.90;;;;;;5004892;28;20267;-70
2021/08/23 07:16:18;;;;;;;4.97;3.30;;;18.20;99.90;;;;;;5011584;28;20264;-65
2021/08/23 07:18:44;;;;;;;7.50;3.77;;;18.20;99.90;;;;;;5016375;28;20590;-64
2021/08/23 07:21:10;;;;;;;4.47;3.30;;;18.20;99.90;;;;;;5009923;28;20458;-64
2021/08/23 07:23:36;;;;;;;6.07;3.43;;;18.10;99.90;;;;;;5011289;28;20465;-66
2021/08/23 07:26:08;;;;;;;5.13;3.57;;;18.20;99.90;;;;;;5013993;28;20260;-69
2021/08/23 07:28:35;;;;;;;6.33;3.83;;;18.30;99.90;;;;;;5020529;28;20471;-64
2021/08/23 07:31:02;;;;;;;6.00;3.57;;;18.40;99.90;;;;;;5018605;28;20460;-69
2021/08/23 07:33:31;;;;;;;4.97;3.50;;;18.40;99.90;;;;;;5016755;28;20433;-65
2021/08/23 07:35:58;;;;;;;7.30;3.60;;;18.50;99.90;;;;;;5021853;28;20447;-68
2021/08/23 07:38:24;;;;;;;4.47;3.33;;;18.60;99.90;;;;;;5000779;28;20621;-65
2021/08/23 07:40:55;;;;;;;3.90;3.50;;;18.60;99.90;;;;;;5001299;28;20511;-66
2021/08/23 07:43:22;;;;;;;5.40;3.00;;;18.60;99.90;;;;;;5033894;28;20482;-66
2021/08/23 07:45:48;;;;;;;4.43;3.80;;;18.50;99.90;;;;;;5016186;28;20452;-64
2021/08/23 07:48:15;;;;;;;4.60;3.93;;;18.50;99.90;;;;;;5000337;28;20440;-69
2021/08/23 07:50:41;;;;;;;5.60;3.40;;;18.60;99.90;;;;;;5021154;28;20471;-68
2021/08/23 07:53:10;;;;;;;5.73;3.77;;;18.70;99.90;;;;;;5000920;28;20480;-69
2021/08/23 07:55:36;;;;;;;5.03;3.70;;;18.70;99.90;;;;;;5020923;28;20971;-68
2021/08/23 07:58:03;;;;;;;4.80;3.37;;;18.90;99.90;;;;;;5017225;28;20482;-68
2021/08/23 08:00:29;;;;;;;4.37;3.97;;;19.00;99.90;;;;;;5018248;28;20471;-69
2021/08/23 08:02:56;;;;;;;4.57;3.07;;;19.00;99.90;;;;;;5020528;28;20435;-66
2021/08/23 08:05:22;;;;;;;3.80;3.40;;;19.00;99.90;;;;;;5019785;28;20459;-64
2021/08/23 08:07:49;;;;;;;6.10;4.17;;;19.10;99.90;;;;;;5014691;28;20436;-66
2021/08/23 08:10:16;;;;;;;7.10;3.80;;;19.20;99.90;;;;;;5022780;28;20658;-66
2021/08/23 08:12:45;;;;;;;5.37;3.20;;;19.40;99.90;;;;;;5020062;28;20591;-65
2021/08/23 08:15:12;;;;;;;4.10;3.70;;;19.40;99.90;;;;;;5017782;28;20494;-66
2021/08/23 08:17:38;;;;;;;4.53;3.37;;;19.20;99.90;;;;;;5019192;28;20771;-65
2021/08/23 08:20:07;;;;;;;5.20;3.97;;;19.40;99.90;;;;;;5019898;28;20517;-65
2021/08/23 08:22:33;;;;;;;3.00;2.70;;;19.50;99.90;;;;;;5015534;28;20447;-66
2021/08/23 08:25:00;;;;;;;4.00;3.30;;;19.50;99.90;;;;;;5019101;28;20830;-68
2021/08/23 08:27:27;;;;;;;4.50;4.10;;;19.50;99.90;;;;;;5014690;28;20431;-65
2021/08/23 08:29:53;;;;;;;5.40;3.17;;;19.50;99.90;;;;;;5015631;28;20499;-67
2021/08/23 08:32:21;;;;;;;8.63;3.83;;;19.40;99.90;;;;;;5005508;28;20444;-64
2021/08/23 08:34:47;;;;;;;3.70;3.37;;;19.40;99.90;;;;;;5018853;28;20481;-69
2021/08/23 08:37:13;;;;;;;4.50;3.23;;;19.50;99.90;;;;;;5005933;28;20504;-66
2021/08/23 08:39:41;;;;;;;3.50;3.20;;;19.50;99.90;;;;;;5015587;28;20483;-68
2021/08/23 08:42:08;;;;;;;5.20;3.90;;;19.60;99.90;;;;;;5022303;28;20734;-67
2021/08/23 08:44:34;;;;;;;3.73;3.40;;;19.50;99.90;;;;;;5016073;28;20479;-66
2021/08/23 08:47:02;;;;;;;4.93;2.90;;;19.70;99.90;;;;;;5014073;28;20467;-66
2021/08/23 08:49:29;;;;;;;4.10;3.13;;;19.70;99.90;;;;;;5004501;28;20472;-64
2021/08/23 08:51:56;;;;;;;4.53;3.40;;;19.80;99.90;;;;;;5021706;28;20478;-68
2021/08/23 08:54:22;;;;;;;4.63;3.10;;;19.80;99.90;;;;;;5020017;28;20971;-66
2021/08/23 08:56:48;;;;;;;4.10;3.27;;;19.70;99.90;;;;;;5019261;28;20451;-68
2021/08/23 08:59:16;;;;;;;4.30;3.73;;;19.60;99.90;;;;;;5005112;28;20347;-68
2021/08/23 09:01:43;;;;;;;5.77;3.53;;;19.50;99.90;;;;;;5021636;28;20452;-66
2021/08/23 09:04:10;;;;;;;6.27;4.23;;;19.40;99.90;;;;;;5017016;28;20456;-66
2021/08/23 09:06:41;;;;;;;6.33;3.60;;;19.40;99.90;;;;;;5039356;22;21028;-69
2021/08/23 09:09:10;;;;;;;4.03;3.30;;;19.40;99.90;;;;;;5003697;28;20566;-67
2021/08/23 09:15:47;;;;;;;5.20;4.17;;;19.30;99.90;;;;;;5015255;28;20899;-65
2021/08/23 09:21:40;;;;;;;6.50;4.10;;;19.30;99.90;;;;;;5001683;28;20479;-69
2021/08/23 09:24:19;;;;;;;8.43;4.77;;;19.30;99.90;;;;;;4984546;28;20432;-68
2021/08/23 09:26:45;;;;;;;6.90;4.30;;;19.20;99.90;;;;;;4980883;28;20489;-68
2021/08/23 09:29:11;;;;;;;5.37;4.63;;;19.10;99.90;;;;;;4982263;28;20462;-68
2021/08/23 09:31:40;;;;;;;6.07;5.13;;;19.30;99.90;;;;;;4983356;28;20897;-68
2021/08/23 09:34:09;;;;;;;5.87;4.53;;;19.40;99.90;;;;;;4984610;28;20437;-64
2021/08/23 09:36:36;;;;;;;5.20;4.70;;;19.50;99.90;;;;;;4993207;28;20464;-68
2021/08/23 09:39:08;;;;;;;5.37;4.00;;;19.70;99.90;;;;;;4980966;28;20990;-69
2021/08/23 09:41:42;;;;;;;5.20;4.40;;;19.70;99.90;;;;;;4985725;28;20436;-64
2021/08/23 09:44:15;;;;;;;4.43;4.03;;;19.70;99.90;;;;;;4969616;28;20446;-65
2021/08/23 09:46:43;;;;;;;4.97;4.10;;;19.70;99.90;;;;;;5000092;28;20441;-66
2021/08/23 09:49:12;;;;;;;7.27;4.83;;;19.60;99.90;;;;;;4983018;28;20496;-68
2021/08/23 09:51:41;;;;;;;5.73;4.40;;;19.60;99.90;;;;;;4975560;28;20476;-68
2021/08/23 09:54:10;;;;;;;6.20;4.90;;;19.70;99.90;;;;;;4985585;28;20957;-68
2021/08/23 09:56:53;;;;;;;6.17;4.23;;;19.70;99.90;;;;;;4985745;28;20450;-66
2021/08/23 09:59:26;;;;;;;6.20;4.50;;;19.60;99.90;;;;;;4985425;28;20461;-67
2021/08/23 10:02:10;;;;;;;5.77;4.80;;;19.50;99.90;;;;;;4990163;28;20438;-68
2021/08/23 10:05:07;;;;;;;4.10;3.70;;;19.80;99.90;;;;;;4996676;28;20585;-69
2021/08/23 10:08:05;;;;;;;6.13;3.77;;;19.90;99.90;;;;;;4985409;28;20441;-65
2021/08/23 10:10:31;;;;;;;5.20;3.80;;;20.00;99.90;;;;;;4999906;28;21161;-65
2021/08/23 10:12:59;;;;;;;3.87;3.57;;;20.30;99.90;;;;;;4979434;28;20448;-68
2021/08/23 10:15:26;;;;;;;4.63;3.50;;;20.30;99.90;;;;;;4984475;28;20671;-69
2021/08/23 10:17:53;;;;;;;3.87;3.57;;;20.60;99.90;;;;;;5002733;28;20443;-67
2021/08/23 10:20:20;;;;;;;4.60;3.53;;;20.60;99.90;;;;;;4978438;28;20468;-68
2021/08/23 10:22:46;;;;;;;5.30;3.50;;;20.70;99.90;;;;;;4982670;28;20436;-66
2021/08/23 10:25:13;;;;;;;3.60;3.27;;;20.80;99.90;;;;;;4997309;28;20611;-68
2021/08/23 10:27:42;;;;;;;3.70;3.37;;;21.00;99.90;;;;;;4964233;28;20440;-67
2021/08/23 10:30:19;;;;;;;4.13;3.40;;;21.20;99.90;;;;;;4981177;28;20502;-67
2021/08/23 10:32:47;;;;;;;5.07;3.87;;;21.20;99.90;;;;;;5003790;28;20434;-64
2021/08/23 10:35:25;;;;;;;4.03;3.43;;;21.20;99.90;;;;;;5002007;28;20448;-64
2021/08/23 10:37:54;;;;;;;3.67;3.33;;;21.40;99.90;;;;;;4986697;28;20574;-67
2021/08/23 10:40:42;;;;;;;5.43;3.80;;;21.30;99.90;;;;;;4984598;28;20559;-67
2021/08/23 10:43:23;;;;;;;6.47;3.40;;;21.30;99.90;;;;;;5003328;28;20433;-64
2021/08/23 10:45:50;;;;;;;3.17;2.80;;;21.20;99.90;;;;;;4983172;28;20519;-64
2021/08/23 10:48:21;;;;;;;3.90;2.70;;;21.10;99.90;;;;;;5003778;28;20465;-68
2021/08/23 10:51:01;;;;;;;5.60;3.00;;;21.20;99.90;;;;;;4985113;28;20507;-68
2021/08/23 10:53:37;;;;;;;4.93;2.83;;;21.40;99.90;;;;;;4987703;28;20433;-64
2021/08/23 10:56:17;;;;;;;4.80;4.00;;;21.50;99.90;;;;;;5004190;28;20488;-68
2021/08/23 10:58:53;;;;;;;4.63;3.90;;;21.40;99.90;;;;;;4981848;28;20468;-66
2021/08/23 11:01:22;;;;;;;3.60;3.23;;;21.30;99.90;;;;;;4985207;28;20483;-68
2021/08/23 11:04:04;;;;;;;3.73;3.30;;;21.40;99.90;;;;;;5003407;28;20954;-66
2021/08/23 11:06:49;;;;;;;3.43;3.13;;;21.40;99.90;;;;;;5705101;22;20617;-70
2021/08/23 11:09:14;;;;;;;4.70;3.37;;;21.40;99.90;;;;;;5009602;28;20638;-68
2021/08/23 11:11:41;;;;;;;5.17;2.80;;;21.40;99.90;;;;;;5019818;28;20494;-69
2021/08/23 11:14:21;;;;;;;5.13;3.30;;;21.50;99.90;;;;;;5026092;28;20184;-69
2021/08/23 11:16:54;;;;;;;4.33;2.63;;;21.50;99.90;;;;;;5022673;28;21405;-69
2021/08/23 11:19:24;;;;;;;5.33;3.23;;;21.50;99.90;;;;;;5030218;28;20458;-70
2021/08/23 11:21:58;;;;;;;4.07;2.87;;;21.40;99.90;;;;;;5037809;28;20442;-71
2021/08/23 11:24:29;;;;;;;4.07;3.57;;;21.30;99.90;;;;;;5041337;28;20508;-67
2021/08/23 11:27:00;;;;;;;6.20;2.80;;;21.40;99.90;;;;;;5009408;28;20454;-66
2021/08/23 11:29:26;;;;;;;3.07;2.77;;;21.50;99.90;;;;;;5009468;28;21049;-69
2021/08/23 11:32:04;;;;;;;4.63;2.60;;;21.50;99.90;;;;;;5027047;28;20560;-65
2021/08/23 11:34:30;;;;;;;3.70;3.40;;;21.60;99.90;;;;;;5023444;28;20456;-68
2021/08/23 11:37:07;;;;;;;6.70;2.93;;;21.90;99.90;;;;;;5004605;28;20454;-66
2021/08/23 11:39:35;;;;;;;2.23;1.97;;;21.90;99.90;;;;;;5038905;28;20560;-66
2021/08/23 11:42:03;;;;;;;5.60;2.23;;;22.00;99.90;;;;;;5020657;28;20451;-67
2021/08/23 11:44:29;;;;;;;3.30;2.50;;;22.10;99.90;;;;;;5037855;28;20442;-70
2021/08/23 11:47:01;;;;;;;2.10;1.90;;;22.00;99.90;;;;;;5023605;28;20458;-70
2021/08/23 11:49:35;;;;;;;2.77;2.47;;;22.10;99.90;;;;;;5041089;28;20513;-69
2021/08/23 11:52:15;;;;;;;2.53;1.90;;;21.90;99.90;;;;;;5039729;28;20498;-70
2021/08/23 11:54:45;;;;;;;2.43;2.23;;;22.00;99.90;;;;;;5005146;28;20450;-69
2021/08/23 11:57:10;;;;;;;3.43;3.13;;;22.30;99.90;;;;;;5019201;28;20455;-69
2021/08/23 11:59:36;;;;;;;2.40;2.20;;;22.30;99.90;;;;;;5038382;28;20437;-69
2021/08/23 12:02:14;;;;;;;3.20;2.50;;;22.40;99.90;;;;;;5040557;28;20233;-69
2021/08/23 12:04:40;;;;;;;2.73;2.20;;;22.50;99.90;;;;;;5036166;28;20223;-67
2021/08/23 12:07:06;;;;;;;2.80;2.30;;;22.60;99.90;;;;;;5021199;28;20464;-67
2021/08/23 12:09:35;;;;;;;2.33;2.00;;;22.40;99.90;;;;;;4983776;28;21270;-69
2021/08/23 12:12:01;;;;;;;2.30;2.10;;;22.70;99.90;;;;;;5037603;28;20985;-69
2021/08/23 12:14:30;;;;;;;3.00;2.03;;;22.70;99.90;;;;;;5039136;28;20469;-70
2021/08/23 12:16:56;;;;;;;2.87;1.93;;;23.10;99.90;;;;;;5019469;28;20215;-70
2021/08/23 12:19:21;;;;;;;2.20;2.00;;;23.20;99.90;;;;;;5004364;28;20458;-70
2021/08/23 12:22:04;;;;;;;2.70;2.30;;;23.30;99.90;;;;;;5010909;28;20459;-71
2021/08/23 12:24:30;;;;;;;2.63;1.80;;;24.10;99.90;;;;;;5020930;28;20219;-70
2021/08/23 12:26:58;;;;;;;1.93;1.73;;;24.30;99.90;;;;;;5026889;28;21052;-70
2021/08/23 12:29:36;;;;;;;2.07;1.50;;;25.00;99.90;;;;;;5012694;28;20562;-70
2021/08/23 12:32:08;;;;;;;2.10;1.90;;;25.00;99.90;;;;;;5036959;28;20501;-69
2021/08/23 12:34:42;;;;;;;1.67;1.57;;;25.50;99.90;;;;;;5037184;28;20446;-69
2021/08/23 12:37:09;;;;;;;2.00;1.70;;;26.40;99.90;;;;;;5017772;28;20446;-69
2021/08/23 12:39:36;;;;;;;2.20;2.00;;;27.00;99.90;;;;;;5020173;28;20431;-70
2021/08/23 12:42:05;;;;;;;2.13;1.93;;;27.30;99.90;;;;;;5036698;28;20431;-69
2021/08/23 12:44:30;;;;;;;2.07;1.87;;;27.00;99.90;;;;;;5020480;28;20533;-69
2021/08/23 12:46:56;;;;;;;2.40;2.20;;;27.20;99.90;;;;;;5036199;28;20577;-68
2021/08/23 12:49:22;;;;;;;2.10;1.90;;;27.90;99.90;;;;;;5037676;28;20222;-68
2021/08/23 12:51:50;;;;;;;2.37;2.17;;;28.40;99.90;;;;;;5038754;28;20910;-67
2021/08/23 12:54:17;;;;;;;2.07;1.87;;;28.30;99.90;;;;;;5020198;28;20446;-65
2021/08/23 12:56:44;;;;;;;2.57;2.37;;;28.40;99.90;;;;;;5032602;28;20462;-66
2021/08/23 12:59:10;;;;;;;2.63;2.43;;;28.50;99.90;;;;;;5004950;28;20490;-71
2021/08/23 13:01:36;;;;;;;2.80;2.30;;;29.20;99.90;;;;;;5014964;28;20462;-71
2021/08/23 13:04:05;;;;;;;1.90;1.80;;;29.40;99.90;;;;;;5023909;28;20203;-67